Back to Top

Language: 

My Weather Underground Personal Weather Station Historical Data with Graphs...

Delerius Weather Station Historical Data
Daily Summary for April 16, 2017 Units:  Metric    English   Both
« Previous Day
Next Day »
Daily Weekly Monthly Yearly Custom
  High: Low: Average:
Temperature: 12.4 °C 4.7 °C 8.6 °C
Dew Point: 8.9 °C 1.4 °C 5.3 °C
Humidity: 95 % 67 % 81 %
Wind Speed: 20.9 km/h 0 km/h 11.4 km/h
Wind Gust: 35.4 km/h - -
Wind:- - West
Pressure: 1020.9 hPa 1017.2 hPa -
Precipitation: 2.29 mm    
Historical Graphs
 
 
Tabular Data for April 16, 2017
Time Temperature Dew Point Pressure Wind Wind Speed Wind Gust Humidity Rainfall Rate (Hourly) solar Conditions
00:02 5.3 °C 1.6 °C 1019.9 hPa WNW 4.8 km/h 12.9 km/h 77 % 0 mm 0 W/m2
00:07 5.2 °C 1.7 °C 1019.9 hPa WNW 6.4 km/h 12.9 km/h 78 % 0 mm 0 W/m2
00:12 5.2 °C 1.7 °C 1019.9 hPa WNW 6.4 km/h 12.9 km/h 78 % 0 mm 0 W/m2
00:17 5.2 °C 1.7 °C 1019.9 hPa WNW 4.8 km/h 12.9 km/h 78 % 0 mm 0 W/m2
00:22 5.1 °C 1.6 °C 1019.9 hPa WNW 4.8 km/h 12.9 km/h 78 % 0 mm 0 W/m2
00:27 5.1 °C 1.6 °C 1019.9 hPa WNW 6.4 km/h 12.9 km/h 78 % 0 mm 0 W/m2
00:32 5.2 °C 1.7 °C 1019.9 hPa WNW 6.4 km/h 16.1 km/h 78 % 0 mm 0 W/m2
00:37 5.2 °C 1.7 °C 1019.9 hPa WNW 4.8 km/h 16.1 km/h 78 % 0 mm 0 W/m2
00:42 5.2 °C 1.7 °C 1019.9 hPa WNW 1.6 km/h 8 km/h 78 % 0 mm 0 W/m2
00:47 5.1 °C 1.6 °C 1019.9 hPa Calm   1.6 km/h 78 % 0 mm 0 W/m2
00:52 4.9 °C 1.4 °C 1019.9 hPa Calm   3.2 km/h 78 % 0 mm 0 W/m2
00:57 4.8 °C 1.4 °C 1019.9 hPa West 1.6 km/h 9.7 km/h 79 % 0 mm 0 W/m2
01:02 4.7 °C 1.6 °C 1020.2 hPa West 3.2 km/h 11.3 km/h 80 % 0 mm 0 W/m2
01:07 4.8 °C 1.7 °C 1020.2 hPa West 3.2 km/h 12.9 km/h 80 % 0 mm 0 W/m2
01:12 4.8 °C 1.7 °C 1020.2 hPa West 3.2 km/h 12.9 km/h 80 % 0 mm 0 W/m2
01:17 4.8 °C 1.7 °C 1020.2 hPa West 1.6 km/h 12.9 km/h 80 % 0 mm 0 W/m2
01:22 4.8 °C 1.7 °C 1020.2 hPa WNW 1.6 km/h 8 km/h 80 % 0 mm 0 W/m2
01:27 4.8 °C 1.8 °C 1020.2 hPa WNW 4.8 km/h 14.5 km/h 81 % 0 mm 0 W/m2
01:32 4.9 °C 1.9 °C 1020.2 hPa WNW 8 km/h 17.7 km/h 81 % 0 mm 0 W/m2
01:37 5.1 °C 1.9 °C 1020.2 hPa WNW 8 km/h 17.7 km/h 80 % 0 mm 0 W/m2
01:42 5.2 °C 2.1 °C 1020.2 hPa WNW 6.4 km/h 17.7 km/h 80 % 0 mm 0 W/m2
01:47 5.3 °C 1.9 °C 1020.2 hPa WNW 8 km/h 17.7 km/h 79 % 0 mm 0 W/m2
01:52 5.4 °C 2.1 °C 1020.2 hPa WNW 8 km/h 17.7 km/h 79 % 0 mm 0 W/m2
01:57 5.4 °C 2.1 °C 1020.2 hPa WNW 8 km/h 17.7 km/h 79 % 0 mm 0 W/m2
02:02 5.4 °C 2.1 °C 1020.5 hPa WNW 6.4 km/h 14.5 km/h 79 % 0 mm 0 W/m2
02:07 5.4 °C 1.9 °C 1020.5 hPa WNW 4.8 km/h 11.3 km/h 78 % 0 mm 0 W/m2
02:12 5.4 °C 1.9 °C 1020.2 hPa WNW 4.8 km/h 12.9 km/h 78 % 0 mm 0 W/m2
02:17 5.4 °C 1.9 °C 1020.5 hPa WNW 6.4 km/h 12.9 km/h 78 % 0 mm 0 W/m2
02:22 5.4 °C 1.9 °C 1020.2 hPa WNW 6.4 km/h 16.1 km/h 78 % 0 mm 0 W/m2
02:27 5.4 °C 1.9 °C 1020.2 hPa WNW 8 km/h 16.1 km/h 78 % 0 mm 0 W/m2
02:32 5.4 °C 2.1 °C 1020.2 hPa WNW 9.7 km/h 16.1 km/h 79 % 0 mm 0 W/m2
02:38 5.4 °C 1.9 °C 1020.2 hPa WNW 8 km/h 16.1 km/h 78 % 0 mm 0 W/m2
02:43 5.5 °C 1.9 °C 1020.2 hPa WNW 8 km/h 20.9 km/h 78 % 0 mm 0 W/m2
02:48 5.6 °C 2.1 °C 1020.2 hPa WNW 12.9 km/h 22.5 km/h 78 % 0 mm 0 W/m2
02:53 5.7 °C 2.2 °C 1020.2 hPa WNW 12.9 km/h 25.7 km/h 78 % 0 mm 0 W/m2
02:58 5.7 °C 2.2 °C 1020.5 hPa WNW 12.9 km/h 25.7 km/h 78 % 0 mm 0 W/m2
03:03 5.8 °C 2.1 °C 1020.5 hPa WNW 12.9 km/h 24.1 km/h 77 % 0 mm 0 W/m2
03:08 5.8 °C 2.1 °C 1020.2 hPa WNW 11.3 km/h 22.5 km/h 77 % 0 mm 0 W/m2
03:13 5.8 °C 2.1 °C 1020.2 hPa WNW 9.7 km/h 16.1 km/h 77 % 0 mm 0 W/m2
03:18 5.8 °C 2.1 °C 1020.2 hPa WNW 8 km/h 17.7 km/h 77 % 0 mm 0 W/m2
03:23 5.8 °C 2.1 °C 1020.2 hPa NW 8 km/h 20.9 km/h 77 % 0 mm 0 W/m2
03:28 5.8 °C 2.1 °C 1020.2 hPa WNW 9.7 km/h 20.9 km/h 77 % 0 mm 0 W/m2
03:33 5.9 °C 2.2 °C 1020.2 hPa WNW 12.9 km/h 20.9 km/h 77 % 0 mm 0 W/m2
03:38 5.9 °C 2.2 °C 1020.2 hPa WNW 14.5 km/h 30.6 km/h 77 % 0 mm 0 W/m2
03:43 5.9 °C 2.2 °C 1019.9 hPa WNW 14.5 km/h 30.6 km/h 77 % 0 mm 0 W/m2
03:48 6 °C 2.4 °C 1020.2 hPa West 11.3 km/h 19.3 km/h 78 % 0 mm 0 W/m2
03:53 6 °C 2.4 °C 1020.2 hPa West 9.7 km/h 16.1 km/h 78 % 0 mm 0 W/m2
03:58 6 °C 2.6 °C 1020.2 hPa West 9.7 km/h 19.3 km/h 79 % 0 mm 0 W/m2
04:03 6 °C 2.6 °C 1020.2 hPa West 11.3 km/h 19.3 km/h 79 % 0 mm 0 W/m2
04:08 6 °C 2.6 °C 1020.2 hPa West 11.3 km/h 24.1 km/h 79 % 0 mm 0 W/m2
04:13 6 °C 2.6 °C 1020.2 hPa WNW 11.3 km/h 24.1 km/h 79 % 0 mm 0 W/m2
04:18 6.1 °C 2.7 °C 1020.2 hPa WNW 14.5 km/h 20.9 km/h 79 % 0 mm 0 W/m2
04:23 6.1 °C 2.7 °C 1020.2 hPa WNW 12.9 km/h 20.9 km/h 79 % 0 mm 0 W/m2
04:28 6.1 °C 2.7 °C 1020.2 hPa WNW 11.3 km/h 19.3 km/h 79 % 0 mm 0 W/m2
04:33 6.1 °C 2.7 °C 1020.2 hPa WNW 11.3 km/h 19.3 km/h 79 % 0 mm 0 W/m2
04:38 6.1 °C 2.7 °C 1020.2 hPa WNW 12.9 km/h 22.5 km/h 79 % 0 mm 0 W/m2
04:43 6.1 °C 2.7 °C 1020.2 hPa WNW 14.5 km/h 22.5 km/h 79 % 0 mm 0 W/m2
04:48 6.1 °C 2.7 °C 1020.2 hPa WNW 12.9 km/h 20.9 km/h 79 % 0 mm 0 W/m2
04:53 6.1 °C 2.7 °C 1020.2 hPa WNW 11.3 km/h 24.1 km/h 79 % 0 mm 0 W/m2
04:58 6.1 °C 2.7 °C 1020.2 hPa West 12.9 km/h 24.1 km/h 79 % 0 mm 0 W/m2
05:03 6.2 °C 3 °C 1020.2 hPa West 11.3 km/h 22.5 km/h 80 % 0 mm 0 W/m2
05:08 6.2 °C 3 °C 1020.2 hPa West 11.3 km/h 22.5 km/h 80 % 0 mm 0 W/m2
05:14 6.2 °C 3 °C 1020.2 hPa West 12.9 km/h 24.1 km/h 80 % 0 mm 0 W/m2
05:19 6.2 °C 3.2 °C 1020.2 hPa West 14.5 km/h 24.1 km/h 81 % 0 mm 0 W/m2
05:24 6.2 °C 3.2 °C 1020.2 hPa West 14.5 km/h 30.6 km/h 81 % 0 mm 0 W/m2
05:29 6.2 °C 3.2 °C 1020.2 hPa West 14.5 km/h 30.6 km/h 81 % 0 mm 0 W/m2
05:34 6.2 °C 3.2 °C 1020.2 hPa West 12.9 km/h 22.5 km/h 81 % 0 mm 0 W/m2
05:35 6.1 °C 3.1 °C 1020.2 hPa West 11.3 km/h 19.3 km/h 81 % 0 mm 0 W/m2
05:40 6.1 °C 3.1 °C 1020.2 hPa West 11.3 km/h 20.9 km/h 81 % 0 mm 0 W/m2
05:45 6.1 °C 3.1 °C 1020.2 hPa West 11.3 km/h 22.5 km/h 81 % 0 mm 0 W/m2
05:50 6.1 °C 3.1 °C 1020.2 hPa West 11.3 km/h 22.5 km/h 81 % 0 mm 0 W/m2
05:55 6.1 °C 3.3 °C 1020.5 hPa West 9.7 km/h 17.7 km/h 82 % 0 mm 0 W/m2
06:00 6 °C 3.2 °C 1020.5 hPa WNW 6.4 km/h 17.7 km/h 82 % 0 mm 0 W/m2
06:05 6 °C 3.2 °C 1020.5 hPa WNW 4.8 km/h 12.9 km/h 82 % 0 mm 5 W/m2
06:11 5.9 °C 3.1 °C 1020.5 hPa West 4.8 km/h 11.3 km/h 82 % 0 mm 5 W/m2
06:16 5.9 °C 3.1 °C 1020.5 hPa West 3.2 km/h 11.3 km/h 82 % 0 mm 7 W/m2
06:21 5.9 °C 3.2 °C 1020.5 hPa West 3.2 km/h 9.7 km/h 83 % 0 mm 14 W/m2
06:26 5.9 °C 3.2 °C 1020.5 hPa West 3.2 km/h 9.7 km/h 83 % 0 mm 14 W/m2
06:31 5.9 °C 3.2 °C 1020.5 hPa West 1.6 km/h 9.7 km/h 83 % 0 mm 16 W/m2
06:36 5.9 °C 3.4 °C 1020.5 hPa West 6.4 km/h 20.9 km/h 84 % 0 mm 25 W/m2
06:41 6 °C 3.3 °C 1020.5 hPa West 8 km/h 20.9 km/h 83 % 0 mm 30 W/m2
06:46 6.1 °C 3.6 °C 1020.5 hPa West 8 km/h 16.1 km/h 84 % 0 mm 37 W/m2
06:51 6.1 °C 3.6 °C 1020.5 hPa West 8 km/h 16.1 km/h 84 % 0 mm 51 W/m2
06:56 6.2 °C 3.7 °C 1020.5 hPa West 9.7 km/h 17.7 km/h 84 % 0 mm 65 W/m2
07:01 6.3 °C 3.8 °C 1020.9 hPa West 8 km/h 17.7 km/h 84 % 0 mm 63 W/m2
07:06 6.3 °C 3.8 °C 1020.9 hPa West 6.4 km/h 12.9 km/h 84 % 0 mm 67 W/m2
07:11 6.4 °C 3.9 °C 1020.9 hPa West 8 km/h 14.5 km/h 84 % 0 mm 98 W/m2
07:16 6.5 °C 3.8 °C 1020.9 hPa WNW 8 km/h 16.1 km/h 83 % 0 mm 102 W/m2
07:17 6.5 °C 3.8 °C 1020.9 hPa WNW 8 km/h 16.1 km/h 83 % 0 mm 104 W/m2
07:22 6.6 °C 3.9 °C 1020.9 hPa WNW 6.4 km/h 16.1 km/h 83 % 0 mm 84 W/m2
07:27 6.7 °C 4 °C 1020.9 hPa West 8 km/h 16.1 km/h 83 % 0 mm 98 W/m2
07:32 6.7 °C 4 °C 1020.5 hPa West 8 km/h 14.5 km/h 83 % 0 mm 116 W/m2
07:37 6.8 °C 3.9 °C 1020.9 hPa West 8 km/h 14.5 km/h 82 % 0 mm 149 W/m2
07:42 6.9 °C 4.1 °C 1020.9 hPa West 6.4 km/h 14.5 km/h 82 % 0 mm 146 W/m2
07:47 7 °C 4.1 °C 1020.9 hPa West 6.4 km/h 14.5 km/h 82 % 0 mm 142 W/m2
07:52 7.1 °C 4.1 °C 1020.9 hPa WNW 6.4 km/h 14.5 km/h 81 % 0 mm 107 W/m2
07:57 7.2 °C 4 °C 1020.9 hPa WNW 8 km/h 14.5 km/h 80 % 0 mm 139 W/m2
08:02 7.2 °C 4 °C 1020.9 hPa WNW 8 km/h 16.1 km/h 80 % 0 mm 109 W/m2
08:07 7.3 °C 4.1 °C 1020.9 hPa WNW 8 km/h 17.7 km/h 80 % 0 mm 271 W/m2
08:12 7.6 °C 4.2 °C 1020.9 hPa WNW 11.3 km/h 25.7 km/h 79 % 0 mm 260 W/m2
08:17 7.9 °C 4.5 °C 1020.9 hPa WNW 11.3 km/h 25.7 km/h 79 % 0 mm 362 W/m2
08:22 8.2 °C 4.4 °C 1020.9 hPa WNW 11.3 km/h 24.1 km/h 77 % 0 mm 311 W/m2
08:27 8.4 °C 4.4 °C 1020.9 hPa WNW 12.9 km/h 24.1 km/h 76 % 0 mm 278 W/m2
08:32 8.5 °C 4.3 °C 1020.9 hPa WNW 14.5 km/h 29 km/h 75 % 0 mm 269 W/m2
08:37 8.6 °C 4.2 °C 1020.9 hPa WNW 14.5 km/h 29 km/h 74 % 0 mm 186 W/m2
08:42 8.7 °C 4.1 °C 1020.9 hPa WNW 12.9 km/h 25.7 km/h 73 % 0 mm 397 W/m2
08:47 8.8 °C 4.2 °C 1020.9 hPa WNW 12.9 km/h 25.7 km/h 73 % 0 mm 410 W/m2
08:52 8.9 °C 4.1 °C 1020.9 hPa WNW 12.9 km/h 30.6 km/h 72 % 0 mm 411 W/m2
08:57 9.2 °C 4.4 °C 1020.9 hPa WNW 14.5 km/h 30.6 km/h 72 % 0 mm 445 W/m2
09:02 9.4 °C 4.4 °C 1020.9 hPa WNW 14.5 km/h 32.2 km/h 71 % 0 mm 494 W/m2
09:07 9.7 °C 4.5 °C 1020.9 hPa WNW 14.5 km/h 32.2 km/h 70 % 0 mm 543 W/m2
09:12 9.8 °C 3.9 °C 1020.9 hPa WNW 14.5 km/h 29 km/h 67 % 0 mm 283 W/m2
09:17 9.7 °C 4.1 °C 1020.9 hPa WNW 14.5 km/h 29 km/h 68 % 0 mm 202 W/m2
09:22 9.6 °C 4.2 °C 1020.9 hPa WNW 11.3 km/h 20.9 km/h 69 % 0 mm 202 W/m2
09:27 9.6 °C 4 °C 1020.9 hPa WNW 12.9 km/h 20.9 km/h 68 % 0 mm 257 W/m2
09:32 9.4 °C 4 °C 1020.9 hPa WNW 14.5 km/h 25.7 km/h 69 % 0 mm 244 W/m2
09:37 9.4 °C 4 °C 1020.9 hPa WNW 14.5 km/h 25.7 km/h 69 % 0 mm 244 W/m2
09:42 9.4 °C 4 °C 1020.9 hPa WNW 14.5 km/h 30.6 km/h 69 % 0 mm 267 W/m2
09:47 9.4 °C 4.2 °C 1020.9 hPa NW 12.9 km/h 30.6 km/h 70 % 0 mm 197 W/m2
09:52 9.5 °C 4.1 °C 1020.9 hPa WNW 12.9 km/h 22.5 km/h 69 % 0 mm 216 W/m2
09:58 9.6 °C 4.2 °C 1020.9 hPa WNW 12.9 km/h 22.5 km/h 69 % 0 mm 353 W/m2
10:03 9.7 °C 4.1 °C 1020.5 hPa WNW 12.9 km/h 24.1 km/h 68 % 0 mm 183 W/m2
10:08 9.7 °C 4.3 °C 1020.9 hPa WNW 12.9 km/h 24.1 km/h 69 % 0 mm 146 W/m2
10:13 9.6 °C 4.4 °C 1020.9 hPa West 14.5 km/h 24.1 km/h 70 % 0 mm 135 W/m2
10:18 9.4 °C 4.8 °C 1020.9 hPa West 16.1 km/h 29 km/h 73 % 0 mm 109 W/m2
10:23 9.2 °C 5 °C 1020.9 hPa West 12.9 km/h 29 km/h 75 % 0 mm 176 W/m2
10:28 9.1 °C 5.3 °C 1020.9 hPa WNW 11.3 km/h 19.3 km/h 77 % 0 mm 221 W/m2
10:33 9.1 °C 5.3 °C 1020.9 hPa WNW 11.3 km/h 20.9 km/h 77 % 0 mm 225 W/m2
10:38 9 °C 5.2 °C 1020.9 hPa West 12.9 km/h 22.5 km/h 77 % 0 mm 232 W/m2
10:43 9 °C 5.2 °C 1020.9 hPa West 14.5 km/h 25.7 km/h 77 % 0 mm 221 W/m2
10:48 8.9 °C 5.1 °C 1020.9 hPa WNW 16.1 km/h 25.7 km/h 77 % 0 mm 230 W/m2
10:53 9 °C 5 °C 1020.5 hPa WNW 12.9 km/h 22.5 km/h 76 % 0 mm 287 W/m2
10:58 9.1 °C 5.3 °C 1020.5 hPa WNW 9.7 km/h 17.7 km/h 77 % 0 mm 267 W/m2
11:03 9.2 °C 5.2 °C 1020.5 hPa West 9.7 km/h 17.7 km/h 76 % 0 mm 269 W/m2
11:08 9.3 °C 5.3 °C 1020.5 hPa West 11.3 km/h 19.3 km/h 76 % 0 mm 309 W/m2
11:13 9.4 °C 5.2 °C 1020.5 hPa West 11.3 km/h 19.3 km/h 75 % 0 mm 292 W/m2
11:18 9.6 °C 5.4 °C 1020.5 hPa West 11.3 km/h 19.3 km/h 75 % 0 mm 287 W/m2
11:23 9.6 °C 5.4 °C 1020.5 hPa West 12.9 km/h 22.5 km/h 75 % 0 mm 197 W/m2
11:28 9.7 °C 5.3 °C 1020.5 hPa WNW 12.9 km/h 24.1 km/h 74 % 0 mm 155 W/m2
11:33 9.7 °C 5.5 °C 1020.5 hPa WNW 12.9 km/h 24.1 km/h 75 % 0 mm 264 W/m2
11:38 9.7 °C 5.5 °C 1020.5 hPa West 11.3 km/h 20.9 km/h 75 % 0 mm 332 W/m2
11:43 9.8 °C 5.6 °C 1020.5 hPa West 12.9 km/h 22.5 km/h 75 % 0 mm 345 W/m2
11:48 9.9 °C 5.7 °C 1020.2 hPa West 14.5 km/h 24.1 km/h 75 % 0 mm 420 W/m2
11:53 10.1 °C 6.1 °C 1020.2 hPa West 14.5 km/h 24.1 km/h 76 % 0 mm 371 W/m2
11:58 10.3 °C 6.1 °C 1020.2 hPa West 14.5 km/h 24.1 km/h 75 % 0 mm 267 W/m2
12:03 10.3 °C 5.9 °C 1020.2 hPa West 14.5 km/h 24.1 km/h 74 % 0 mm 155 W/m2
12:08 10.2 °C 5.8 °C 1020.2 hPa West 12.9 km/h 22.5 km/h 74 % 0 mm 163 W/m2
12:13 10.1 °C 5.9 °C 1020.2 hPa West 12.9 km/h 20.9 km/h 75 % 0 mm 243 W/m2
12:18 10.1 °C 6.2 °C 1020.2 hPa West 12.9 km/h 22.5 km/h 77 % 0 mm 144 W/m2
12:23 10 °C 6.2 °C 1020.2 hPa WSW 12.9 km/h 22.5 km/h 77 % 0 mm 100 W/m2
12:28 9.9 °C 6.2 °C 1020.2 hPa WSW 12.9 km/h 22.5 km/h 78 % 0 mm 295 W/m2
12:33 9.9 °C 6.2 °C 1020.2 hPa West 14.5 km/h 25.7 km/h 78 % 0 mm 462 W/m2
12:38 10.1 °C 6.2 °C 1019.9 hPa West 16.1 km/h 25.7 km/h 77 % 0 mm 258 W/m2
12:43 10.3 °C 6.4 °C 1019.9 hPa West 16.1 km/h 25.7 km/h 77 % 0 mm 294 W/m2
12:48 10.2 °C 6.3 °C 1019.9 hPa West 14.5 km/h 22.5 km/h 77 % 0 mm 214 W/m2
12:53 10.3 °C 6.4 °C 1019.9 hPa WSW 12.9 km/h 22.5 km/h 77 % 0 mm 457 W/m2
12:58 10.4 °C 6.6 °C 1019.9 hPa West 14.5 km/h 25.7 km/h 77 % 0 mm 148 W/m2
13:03 10.5 °C 6.6 °C 1019.9 hPa West 16.1 km/h 29 km/h 77 % 0 mm 264 W/m2
13:09 10.5 °C 6.3 °C 1019.9 hPa West 16.1 km/h 35.4 km/h 75 % 0 mm 285 W/m2
13:14 10.4 °C 6.2 °C 1019.5 hPa West 19.3 km/h 35.4 km/h 75 % 0 mm 339 W/m2
13:19 10.6 °C 6.3 °C 1019.5 hPa West 17.7 km/h 32.2 km/h 75 % 0 mm 276 W/m2
13:24 10.6 °C 6.3 °C 1019.5 hPa West 14.5 km/h 25.7 km/h 75 % 0 mm 190 W/m2
13:29 10.6 °C 6.2 °C 1019.5 hPa WSW 12.9 km/h 22.5 km/h 74 % 0 mm 229 W/m2
13:34 10.6 °C 6.2 °C 1019.5 hPa WSW 12.9 km/h 22.5 km/h 74 % 0 mm 255 W/m2
13:39 10.5 °C 6.1 °C 1019.5 hPa WSW 14.5 km/h 29 km/h 74 % 0 mm 250 W/m2
13:44 10.5 °C 6.3 °C 1019.2 hPa WSW 14.5 km/h 29 km/h 75 % 0 mm 287 W/m2
13:49 10.6 °C 7.3 °C 1019.2 hPa WSW 12.9 km/h 19.3 km/h 80 % 0 mm 306 W/m2
13:54 10.6 °C 6.9 °C 1019.2 hPa WSW 12.9 km/h 25.7 km/h 78 % 0 mm 339 W/m2
13:59 10.7 °C 7 °C 1019.2 hPa WSW 14.5 km/h 25.7 km/h 78 % 0 mm 193 W/m2
14:04 10.7 °C 6.8 °C 1019.2 hPa WSW 14.5 km/h 30.6 km/h 77 % 0 mm 216 W/m2
14:09 10.7 °C 6.8 °C 1019.2 hPa WSW 14.5 km/h 30.6 km/h 77 % 0 mm 218 W/m2
14:14 10.8 °C 6.9 °C 1018.8 hPa WSW 12.9 km/h 25.7 km/h 77 % 0 mm 258 W/m2
14:19 10.9 °C 6.8 °C 1018.8 hPa WSW 12.9 km/h 25.7 km/h 76 % 0 mm 207 W/m2
14:21 10.9 °C 6.8 °C 1018.8 hPa WSW 14.5 km/h 30.6 km/h 76 % 0 mm 197 W/m2
14:26 11 °C 6.9 °C 1018.8 hPa WSW 14.5 km/h 30.6 km/h 76 % 0 mm 162 W/m2
14:32 10.9 °C 7.4 °C 1018.8 hPa WSW 14.5 km/h 30.6 km/h 79 % 0 mm 162 W/m2
14:37 10.8 °C 7.5 °C 1018.8 hPa WSW 14.5 km/h 24.1 km/h 80 % 0 mm 162 W/m2
14:42 10.6 °C 7.5 °C 1018.8 hPa WSW 12.9 km/h 24.1 km/h 81 % 0 mm 178 W/m2
14:43 10.6 °C 7.5 °C 1018.8 hPa WSW 14.5 km/h 24.1 km/h 81 % 0 mm 179 W/m2
14:48 10.6 °C 7.7 °C 1018.5 hPa WSW 11.3 km/h 20.9 km/h 82 % 0 mm 158 W/m2
14:53 10.7 °C 7.8 °C 1018.5 hPa West 9.7 km/h 16.1 km/h 82 % 0 mm 234 W/m2
14:58 10.9 °C 7.9 °C 1018.5 hPa West 8 km/h 16.1 km/h 82 % 0 mm 216 W/m2
15:03 11.1 °C 7.8 °C 1018.5 hPa West 11.3 km/h 22.5 km/h 80 % 0 mm 192 W/m2
15:08 11.3 °C 7.8 °C 1018.2 hPa West 14.5 km/h 22.5 km/h 79 % 0 mm 241 W/m2
15:13 11.5 °C 8 °C 1018.2 hPa West 14.5 km/h 29 km/h 79 % 0 mm 243 W/m2
15:18 11.6 °C 7.7 °C 1018.2 hPa West 17.7 km/h 30.6 km/h 77 % 0 mm 225 W/m2
15:23 11.7 °C 7.8 °C 1018.2 hPa West 19.3 km/h 32.2 km/h 77 % 0 mm 214 W/m2
15:28 11.7 °C 7.8 °C 1018.2 hPa West 19.3 km/h 32.2 km/h 77 % 0 mm 290 W/m2
15:33 11.7 °C 7.8 °C 1018.2 hPa West 17.7 km/h 29 km/h 77 % 0 mm 271 W/m2
15:38 11.7 °C 7.8 °C 1018.2 hPa West 17.7 km/h 35.4 km/h 77 % 0 mm 294 W/m2
15:43 11.7 °C 7.8 °C 1018.2 hPa West 16.1 km/h 35.4 km/h 77 % 0 mm 200 W/m2
15:48 11.7 °C 8 °C 1018.2 hPa West 14.5 km/h 24.1 km/h 78 % 0 mm 183 W/m2
15:53 11.7 °C 8.2 °C 1018.2 hPa West 14.5 km/h 24.1 km/h 79 % 0 mm 174 W/m2
15:58 11.7 °C 8.2 °C 1018.2 hPa West 14.5 km/h 30.6 km/h 79 % 0 mm 130 W/m2
16:03 11.6 °C 8.1 °C 1018.2 hPa West 17.7 km/h 35.4 km/h 79 % 0 mm 121 W/m2
16:09 11.6 °C 8.1 °C 1018.2 hPa West 17.7 km/h 35.4 km/h 79 % 0 mm 102 W/m2
16:14 11.4 °C 8.1 °C 1018.2 hPa West 16.1 km/h 29 km/h 80 % 0 mm 113 W/m2
16:19 11.3 °C 8.2 °C 1018.2 hPa West 14.5 km/h 29 km/h 81 % 0 mm 102 W/m2
16:24 11.3 °C 8.2 °C 1017.8 hPa West 14.5 km/h 29 km/h 81 % 0 mm 163 W/m2
16:29 11.3 °C 8.3 °C 1017.8 hPa West 14.5 km/h 24.1 km/h 82 % 0 mm 329 W/m2
16:34 11.6 °C 8.8 °C 1017.8 hPa West 14.5 km/h 29 km/h 83 % 0 mm 264 W/m2
16:39 11.8 °C 8.8 °C 1017.8 hPa WNW 17.7 km/h 33.8 km/h 82 % 0 mm 403 W/m2
16:44 12.1 °C 8.9 °C 1017.5 hPa WNW 19.3 km/h 33.8 km/h 81 % 0 mm 577 W/m2
16:49 12.2 °C 8.7 °C 1017.5 hPa West 19.3 km/h 33.8 km/h 79 % 0 mm 202 W/m2
16:54 12.1 °C 8.4 °C 1017.5 hPa West 17.7 km/h 33.8 km/h 78 % 0 mm 276 W/m2
16:59 12.2 °C 8.7 °C 1017.5 hPa West 17.7 km/h 32.2 km/h 79 % 0 mm 378 W/m2
17:04 12.3 °C 8.6 °C 1017.5 hPa West 20.9 km/h 35.4 km/h 78 % 0 mm 200 W/m2
17:09 12.3 °C 8.6 °C 1017.5 hPa West 20.9 km/h 35.4 km/h 78 % 0 mm 176 W/m2
17:14 12.3 °C 8.6 °C 1017.5 hPa WNW 17.7 km/h 32.2 km/h 78 % 0 mm 116 W/m2
17:19 12.3 °C 8.6 °C 1017.5 hPa WNW 16.1 km/h 32.2 km/h 78 % 0 mm 149 W/m2
17:24 12.3 °C 8.8 °C 1017.5 hPa WNW 14.5 km/h 24.1 km/h 79 % 0 mm 113 W/m2
17:29 12.4 °C 8.7 °C 1017.5 hPa WNW 11.3 km/h 24.1 km/h 78 % 0 mm 123 W/m2
17:34 12.3 °C 8.6 °C 1017.5 hPa WNW 11.3 km/h 25.7 km/h 78 % 0 mm 113 W/m2
17:39 12.3 °C 8.6 °C 1017.5 hPa WNW 14.5 km/h 32.2 km/h 78 % 0 mm 156 W/m2
17:44 12.3 °C 8.8 °C 1017.5 hPa WNW 12.9 km/h 32.2 km/h 79 % 0 mm 190 W/m2
17:49 12.3 °C 8.6 °C 1017.2 hPa WNW 11.3 km/h 25.7 km/h 78 % 0 mm 120 W/m2
17:54 12.3 °C 8.4 °C 1017.2 hPa WNW 14.5 km/h 25.7 km/h 77 % 0 mm 105 W/m2
17:59 12.3 °C 8.4 °C 1017.2 hPa WNW 14.5 km/h 29 km/h 77 % 0 mm 121 W/m2
18:04 12.2 °C 8.5 °C 1017.2 hPa WNW 17.7 km/h 32.2 km/h 78 % 0 mm 118 W/m2
18:09 12.1 °C 8.4 °C 1017.2 hPa WNW 19.3 km/h 32.2 km/h 78 % 0 mm 111 W/m2
18:15 12.1 °C 8.4 °C 1017.2 hPa WNW 16.1 km/h 32.2 km/h 78 % 0 mm 118 W/m2
18:20 12.1 °C 8.4 °C 1017.2 hPa WNW 16.1 km/h 32.2 km/h 78 % 0 mm 76 W/m2
18:25 12.1 °C 8.6 °C 1017.5 hPa WNW 19.3 km/h 32.2 km/h 79 % 0 mm 60 W/m2
18:30 11.9 °C 8.6 °C 1017.5 hPa WNW 20.9 km/h 33.8 km/h 80 % 0 mm 86 W/m2
18:35 11.6 °C 8.6 °C 1017.5 hPa WNW 20.9 km/h 33.8 km/h 82 % 0 mm 76 W/m2
18:40 11.4 °C 8.6 °C 1017.5 hPa WNW 17.7 km/h 33.8 km/h 83 % 0 mm 69 W/m2
18:45 11.2 °C 8.6 °C 1017.5 hPa WNW 14.5 km/h 30.6 km/h 84 % 0 mm 65 W/m2
18:50 11.1 °C 8.7 °C 1017.5 hPa WNW 14.5 km/h 29 km/h 85 % 0 mm 79 W/m2
18:55 11.1 °C 8.8 °C 1017.5 hPa WNW 14.5 km/h 29 km/h 86 % 0 mm 60 W/m2
19:00 11 °C 8.9 °C 1017.5 hPa WNW 11.3 km/h 20.9 km/h 87 % 0 mm 42 W/m2
19:05 10.9 °C 8.8 °C 1017.2 hPa WNW 11.3 km/h 25.7 km/h 87 % 0 mm 79 W/m2
19:10 10.9 °C 8.8 °C 1017.2 hPa WNW 12.9 km/h 25.7 km/h 87 % 0 mm 63 W/m2
19:15 10.9 °C 8.8 °C 1017.2 hPa WNW 12.9 km/h 24.1 km/h 87 % 0 mm 49 W/m2
19:20 10.9 °C 8.7 °C 1017.2 hPa WNW 14.5 km/h 24.1 km/h 86 % 0 mm 44 W/m2
19:25 10.8 °C 8.6 °C 1017.2 hPa WNW 17.7 km/h 29 km/h 86 % 0 mm 26 W/m2
19:30 10.8 °C 8.4 °C 1017.2 hPa WNW 17.7 km/h 29 km/h 85 % 0 mm 26 W/m2
19:35 10.7 °C 8.3 °C 1017.2 hPa WNW 16.1 km/h 29 km/h 85 % 0 mm 26 W/m2
19:40 10.7 °C 8.3 °C 1017.2 hPa WNW 16.1 km/h 24.1 km/h 85 % 0 mm 28 W/m2
19:41 10.7 °C 8.3 °C 1017.2 hPa WNW 14.5 km/h 24.1 km/h 85 % 0 mm 26 W/m2
19:46 10.6 °C 8.2 °C 1017.2 hPa WNW 14.5 km/h 25.7 km/h 85 % 0 mm 14 W/m2
19:51 10.6 °C 8.2 °C 1017.2 hPa WNW 12.9 km/h 25.7 km/h 85 % 0 mm 11 W/m2
19:56 10.4 °C 8.2 °C 1017.2 hPa WNW 12.9 km/h 22.5 km/h 86 % 0 mm 7 W/m2
20:01 10.3 °C 8.1 °C 1017.2 hPa WNW 14.5 km/h 30.6 km/h 86 % 0 mm 5 W/m2
20:06 10.2 °C 7.9 °C 1017.5 hPa WNW 12.9 km/h 30.6 km/h 86 % 0 mm 0 W/m2
20:11 10.1 °C 8.1 °C 1017.5 hPa WNW 11.3 km/h 24.1 km/h 87 % 0 mm 0 W/m2
20:16 9.9 °C 7.8 °C 1017.5 hPa WNW 12.9 km/h 25.7 km/h 87 % 0 mm 0 W/m2
20:21 9.8 °C 7.7 °C 1017.5 hPa WNW 14.5 km/h 25.7 km/h 87 % 0 mm 0 W/m2
20:26 9.8 °C 7.6 °C 1017.5 hPa WNW 12.9 km/h 24.1 km/h 86 % 0 mm 0 W/m2
20:31 9.7 °C 7.7 °C 1017.5 hPa WNW 12.9 km/h 20.9 km/h 87 % 0 mm 0 W/m2
20:36 9.7 °C 7.7 °C 1017.5 hPa WNW 11.3 km/h 22.5 km/h 87 % 0 mm 0 W/m2
20:41 9.6 °C 7.6 °C 1017.8 hPa WNW 11.3 km/h 22.5 km/h 87 % 0 mm 0 W/m2
20:46 9.5 °C 7.4 °C 1017.8 hPa WNW 11.3 km/h 19.3 km/h 87 % 0 mm 0 W/m2
20:51 9.4 °C 7.3 °C 1017.8 hPa WNW 9.7 km/h 17.7 km/h 87 % 0 mm 0 W/m2
20:57 9.4 °C 7.5 °C 1017.8 hPa WNW 9.7 km/h 17.7 km/h 88 % 0 mm 0 W/m2
21:02 9.4 °C 7.5 °C 1017.8 hPa WNW 11.3 km/h 20.9 km/h 88 % 0 mm 0 W/m2
21:07 9.4 °C 7.5 °C 1018.2 hPa NW 11.3 km/h 20.9 km/h 88 % 0 mm 0 W/m2
21:12 9.4 °C 7.5 °C 1018.2 hPa NW 11.3 km/h 20.9 km/h 88 % 0.25 mm 0 W/m2
21:17 9.3 °C 7.6 °C 1018.2 hPa NNW 9.7 km/h 20.9 km/h 89 % 0.51 mm 0 W/m2
21:22 9.2 °C 7.7 °C 1018.2 hPa NNW 8 km/h 19.3 km/h 90 % 0.51 mm 0 W/m2
21:27 9.1 °C 7.6 °C 1018.2 hPa NNW 8 km/h 16.1 km/h 90 % 0.51 mm 0 W/m2
21:32 8.9 °C 7.5 °C 1018.5 hPa North 8 km/h 16.1 km/h 91 % 0.51 mm 0 W/m2
21:37 8.8 °C 7.4 °C 1018.5 hPa North 8 km/h 14.5 km/h 91 % 0.51 mm 0 W/m2
21:42 8.7 °C 7.3 °C 1018.5 hPa North 6.4 km/h 12.9 km/h 91 % 0.76 mm 0 W/m2
21:47 8.6 °C 7.4 °C 1018.5 hPa NNW 6.4 km/h 12.9 km/h 92 % 0.76 mm 0 W/m2
21:52 8.6 °C 7.2 °C 1018.5 hPa NNW 6.4 km/h 12.9 km/h 91 % 0.76 mm 0 W/m2
21:57 8.4 °C 7.2 °C 1018.5 hPa North 8 km/h 16.1 km/h 92 % 0.76 mm 0 W/m2
22:02 8.3 °C 7.1 °C 1018.8 hPa NNE 9.7 km/h 16.1 km/h 92 % 1.02 mm 0 W/m2
22:07 8.1 °C 6.9 °C 1018.8 hPa NNE 9.7 km/h 16.1 km/h 92 % 1.27 mm 0 W/m2
22:12 8 °C 6.8 °C 1018.8 hPa NNE 8 km/h 14.5 km/h 92 % 1.02 mm 0 W/m2
22:17 7.9 °C 6.8 °C 1018.8 hPa North 8 km/h 14.5 km/h 93 % 1.02 mm 0 W/m2
22:22 7.8 °C 6.7 °C 1018.8 hPa North 8 km/h 14.5 km/h 93 % 0.76 mm 0 W/m2
22:27 7.6 °C 6.6 °C 1019.2 hPa North 9.7 km/h 19.3 km/h 93 % 1.02 mm 0 W/m2
22:32 7.5 °C 6.4 °C 1019.2 hPa North 11.3 km/h 22.5 km/h 93 % 1.02 mm 0 W/m2
22:37 7.3 °C 6.2 °C 1019.2 hPa North 11.3 km/h 22.5 km/h 93 % 1.02 mm 0 W/m2
22:42 7.3 °C 6.2 °C 1019.2 hPa North 8 km/h 17.7 km/h 93 % 1.02 mm 0 W/m2
22:47 7.2 °C 6.3 °C 1019.2 hPa North 6.4 km/h 14.5 km/h 94 % 1.27 mm 0 W/m2
22:49 7.2 °C 6.3 °C 1019.2 hPa NNE 6.4 km/h 14.5 km/h 94 % 1.27 mm 0 W/m2
22:54 7.1 °C 6.2 °C 1019.2 hPa NNE 8 km/h 19.3 km/h 94 % 1.27 mm 0 W/m2
22:59 7 °C 6.1 °C 1019.2 hPa NNE 9.7 km/h 19.3 km/h 94 % 1.27 mm 0 W/m2
23:04 6.9 °C 6 °C 1019.2 hPa NNE 8 km/h 17.7 km/h 94 % 1.02 mm 0 W/m2
23:09 6.8 °C 5.9 °C 1019.5 hPa NNE 9.7 km/h 17.7 km/h 94 % 0.76 mm 0 W/m2
23:14 6.7 °C 5.8 °C 1019.5 hPa NNE 9.7 km/h 19.3 km/h 94 % 0.51 mm 0 W/m2
23:19 6.6 °C 5.7 °C 1019.5 hPa NNE 9.7 km/h 19.3 km/h 94 % 0.51 mm 0 W/m2
23:24 6.5 °C 5.6 °C 1019.5 hPa NNE 9.7 km/h 19.3 km/h 94 % 0.51 mm 0 W/m2
23:29 6.3 °C 5.4 °C 1019.5 hPa NE 9.7 km/h 19.3 km/h 94 % 0.51 mm 0 W/m2
23:34 6.3 °C 5.4 °C 1019.5 hPa NE 9.7 km/h 16.1 km/h 94 % 0.51 mm 0 W/m2
23:39 6.2 °C 5.3 °C 1019.5 hPa NE 9.7 km/h 20.9 km/h 94 % 0.51 mm 0 W/m2
23:44 6.2 °C 5.3 °C 1019.9 hPa NE 8 km/h 20.9 km/h 94 % 0.25 mm 0 W/m2
23:49 6.1 °C 5.3 °C 1019.9 hPa NE 4.8 km/h 12.9 km/h 95 % 0.25 mm 0 W/m2
23:54 6.1 °C 5.3 °C 1019.9 hPa NE 4.8 km/h 12.9 km/h 95 % 0.25 mm 0 W/m2
23:59 6.1 °C 5.3 °C 1019.9 hPa NE 4.8 km/h 11.3 km/h 95 % 0.25 mm 0 W/m2
Delerius-Weather
Compliments of Weather Underground - 2.25 mb

Data updates at regular intervals.